Yuho Maru No.3 — JD2491 — position and weather

sailwx.info

Track history (hours):
 
Tides and Currents Weather Stations Pressure Air Temp Water Temp Dewpoint Dewpoint Depression Visibility Wind Speed Wind Dir Waves Ship Positions

Yuho Maru No.3

Last reported at 2017-Jun-19 07:23 UTC. Time now 2017-Jun-24 22:42 UTC.
Position N 34°37' E 135°01'.

Length 65 m; draft 3.3 m.

Type: Tanker. MMSI: 431000336.

Date/timePositionNaut miles runAvg speedWind from/ knotsBaromVisibWave heightAir tempDewpointWater temp
2017-Jun-19 07:23N 34°37' E 135°01'512.8
2017-Jun-19 07:00N 34°36' E 135°06'611.4
2017-Jun-19 06:30N 34°37' E 135°13'611.8
2017-Jun-19 06:00N 34°38' E 135°20'4 8.1
2017-Jun-19 05:30N 34°39' E 135°25'0 0.0
2017-Jun-19 05:00N 34°39' E 135°25'0 0.0
2017-Jun-19 04:30N 34°39' E 135°25'0 0.0
2017-Jun-19 04:00N 34°39' E 135°25'0 0.0
2017-Jun-19 03:30N 34°39' E 135°25'0 0.0
2017-Jun-19 03:00N 34°39' E 135°25'0 0.0
2017-Jun-19 02:30N 34°39' E 135°25'3 5.9
2017-Jun-19 02:00N 34°40' E 135°21'0 0.4
2017-Jun-19 01:30N 34°39' E 135°21'0 0.0
2017-Jun-19 01:00N 34°39' E 135°21'0 0.0
2017-Jun-19 00:30N 34°39' E 135°21'0 0.0
2017-Jun-19 00:00N 34°39' E 135°21'0 0.1
2017-Jun-18 23:30N 34°39' E 135°21'0 0.0
2017-Jun-18 23:00N 34°39' E 135°21'0 0.0
2017-Jun-18 22:30N 34°39' E 135°21'0 0.0
2017-Jun-18 22:00N 34°39' E 135°21'0 0.0
2017-Jun-18 21:30N 34°39' E 135°21'0 0.0
2017-Jun-18 21:00N 34°39' E 135°21'0 0.0
2017-Jun-18 20:30N 34°39' E 135°21'0 0.0
2017-Jun-18 20:00N 34°39' E 135°21'0 0.0
2017-Jun-18 19:30N 34°39' E 135°21'0 0.0
2017-Jun-18 19:00N 34°39' E 135°21'0 0.0
2017-Jun-18 18:30N 34°39' E 135°21'0 0.0
2017-Jun-18 18:00N 34°39' E 135°21'0 0.0
2017-Jun-18 17:30N 34°39' E 135°21'0 0.0
2017-Jun-18 17:00N 34°39' E 135°21'0 0.0
2017-Jun-18 16:30N 34°39' E 135°21'0 0.0
2017-Jun-18 16:00N 34°39' E 135°21'0 0.0
2017-Jun-18 15:30N 34°39' E 135°21'3 6.7
2017-Jun-18 15:00N 34°37' E 135°18'1313.0
2017-Jun-18 14:00N 34°36' E 135°02'  
2017-Jun-15 06:27N 35°08' E 139°43'511.4
2017-Jun-15 06:01N 35°13' E 139°46'611.0
2017-Jun-15 05:30N 35°18' E 139°44'510.5
2017-Jun-15 05:01N 35°23' E 139°42'611.1
2017-Jun-15 04:30N 35°27' E 139°47'611.7
2017-Jun-15 04:00N 35°30' E 139°53'8 8.7
2017-Jun-15 03:08N 35°31' E 140°02'0 0.0
2017-Jun-15 02:53N 35°31' E 140°02'0 0.0
2017-Jun-15 02:30N 35°31' E 140°02'0 0.0
2017-Jun-15 01:59N 35°31' E 140°02'0 0.0
2017-Jun-15 01:28N 35°31' E 140°02'0 0.0
2017-Jun-15 01:00N 35°31' E 140°02'0 0.0
2017-Jun-15 00:30N 35°31' E 140°02'0 0.0
2017-Jun-14 23:58N 35°31' E 140°02'0 0.1
2017-Jun-14 23:20N 35°31' E 140°02'6 1.0
2017-Jun-14 17:10N 35°36' E 140°06'0 0.0
2017-Jun-14 16:59N 35°36' E 140°06'5 0.4
2017-Jun-14 03:29N 35°35' E 139°60'4 8.9
2017-Jun-14 03:00N 35°36' E 139°55'4 1.1
2017-Jun-13 23:16N 35°40' E 139°57'5 9.2
2017-Jun-13 22:43N 35°35' E 139°55'0 0.1
2017-Jun-13 22:29N 35°35' E 139°55'0 0.0
2017-Jun-13 21:59N 35°35' E 139°55'0 0.0
2017-Jun-13 21:30N 35°35' E 139°55'0 0.0
2017-Jun-13 21:00N 35°35' E 139°55'0 0.0
2017-Jun-13 20:30N 35°35' E 139°55'0 0.0
2017-Jun-13 19:58N 35°35' E 139°55'0 0.0
2017-Jun-13 19:30N 35°35' E 139°55'0 0.0
2017-Jun-13 19:00N 35°35' E 139°55'0 0.1
2017-Jun-13 18:30N 35°35' E 139°55'0 0.0
2017-Jun-13 18:00N 35°35' E 139°55'0 0.0
2017-Jun-13 17:28N 35°35' E 139°55'0 0.0
2017-Jun-13 08:48N 35°35' E 139°55'0 0.2
2017-Jun-13 08:30N 35°35' E 139°55'610.0
2017-Jun-13 07:57N 35°30' E 139°53'712.4
2017-Jun-13 07:25N 35°25' E 139°47'  
Track history (hours):
 
Tides and Currents Weather Stations Pressure Air Temp Water Temp Dewpoint Dewpoint Depression Visibility Wind Speed Wind Dir Waves Ship Positions

Yuho Maru No.3

Last reported at 2017-Jun-19 07:23 UTC. Time now 2017-Jun-24 22:42 UTC.
Position N 34°37' E 135°01'.

Length 65 m; draft 3.3 m.

Type: Tanker. MMSI: 431000336.

Date/timePositionNaut miles runAvg speedWind from/ knotsBaromVisibWave heightAir tempDewpointWater temp
2017-Jun-19 07:23N 34°37' E 135°01'512.8
2017-Jun-19 07:00N 34°36' E 135°06'611.4
2017-Jun-19 06:30N 34°37' E 135°13'611.8
2017-Jun-19 06:00N 34°38' E 135°20'4 8.1
2017-Jun-19 05:30N 34°39' E 135°25'0 0.0
2017-Jun-19 05:00N 34°39' E 135°25'0 0.0
2017-Jun-19 04:30N 34°39' E 135°25'0 0.0
2017-Jun-19 04:00N 34°39' E 135°25'0 0.0
2017-Jun-19 03:30N 34°39' E 135°25'0 0.0
2017-Jun-19 03:00N 34°39' E 135°25'0 0.0
2017-Jun-19 02:30N 34°39' E 135°25'3 5.9
2017-Jun-19 02:00N 34°40' E 135°21'0 0.4
2017-Jun-19 01:30N 34°39' E 135°21'0 0.0
2017-Jun-19 01:00N 34°39' E 135°21'0 0.0
2017-Jun-19 00:30N 34°39' E 135°21'0 0.0
2017-Jun-19 00:00N 34°39' E 135°21'0 0.1
2017-Jun-18 23:30N 34°39' E 135°21'0 0.0
2017-Jun-18 23:00N 34°39' E 135°21'0 0.0
2017-Jun-18 22:30N 34°39' E 135°21'0 0.0
2017-Jun-18 22:00N 34°39' E 135°21'0 0.0
2017-Jun-18 21:30N 34°39' E 135°21'0 0.0
2017-Jun-18 21:00N 34°39' E 135°21'0 0.0
2017-Jun-18 20:30N 34°39' E 135°21'0 0.0
2017-Jun-18 20:00N 34°39' E 135°21'0 0.0
2017-Jun-18 19:30N 34°39' E 135°21'0 0.0
2017-Jun-18 19:00N 34°39' E 135°21'0 0.0
2017-Jun-18 18:30N 34°39' E 135°21'0 0.0
2017-Jun-18 18:00N 34°39' E 135°21'0 0.0
2017-Jun-18 17:30N 34°39' E 135°21'0 0.0
2017-Jun-18 17:00N 34°39' E 135°21'0 0.0
2017-Jun-18 16:30N 34°39' E 135°21'0 0.0
2017-Jun-18 16:00N 34°39' E 135°21'0 0.0
2017-Jun-18 15:30N 34°39' E 135°21'3 6.7
2017-Jun-18 15:00N 34°37' E 135°18'1313.0
2017-Jun-18 14:00N 34°36' E 135°02'  
2017-Jun-15 06:27N 35°08' E 139°43'511.4
2017-Jun-15 06:01N 35°13' E 139°46'611.0
2017-Jun-15 05:30N 35°18' E 139°44'510.5
2017-Jun-15 05:01N 35°23' E 139°42'611.1
2017-Jun-15 04:30N 35°27' E 139°47'611.7
2017-Jun-15 04:00N 35°30' E 139°53'8 8.7
2017-Jun-15 03:08N 35°31' E 140°02'0 0.0
2017-Jun-15 02:53N 35°31' E 140°02'0 0.0
2017-Jun-15 02:30N 35°31' E 140°02'0 0.0
2017-Jun-15 01:59N 35°31' E 140°02'0 0.0
2017-Jun-15 01:28N 35°31' E 140°02'0 0.0
2017-Jun-15 01:00N 35°31' E 140°02'0 0.0
2017-Jun-15 00:30N 35°31' E 140°02'0 0.0
2017-Jun-14 23:58N 35°31' E 140°02'0 0.1
2017-Jun-14 23:20N 35°31' E 140°02'6 1.0
2017-Jun-14 17:10N 35°36' E 140°06'0 0.0
2017-Jun-14 16:59N 35°36' E 140°06'5 0.4
2017-Jun-14 03:29N 35°35' E 139°60'4 8.9
2017-Jun-14 03:00N 35°36' E 139°55'4 1.1
2017-Jun-13 23:16N 35°40' E 139°57'5 9.2
2017-Jun-13 22:43N 35°35' E 139°55'0 0.1
2017-Jun-13 22:29N 35°35' E 139°55'0 0.0
2017-Jun-13 21:59N 35°35' E 139°55'0 0.0
2017-Jun-13 21:30N 35°35' E 139°55'0 0.0
2017-Jun-13 21:00N 35°35' E 139°55'0 0.0
2017-Jun-13 20:30N 35°35' E 139°55'0 0.0
2017-Jun-13 19:58N 35°35' E 139°55'0 0.0
2017-Jun-13 19:30N 35°35' E 139°55'0 0.0
2017-Jun-13 19:00N 35°35' E 139°55'0 0.1
2017-Jun-13 18:30N 35°35' E 139°55'0 0.0
2017-Jun-13 18:00N 35°35' E 139°55'0 0.0
2017-Jun-13 17:28N 35°35' E 139°55'0 0.0
2017-Jun-13 08:48N 35°35' E 139°55'0 0.2
2017-Jun-13 08:30N 35°35' E 139°55'610.0
2017-Jun-13 07:57N 35°30' E 139°53'712.4
2017-Jun-13 07:25N 35°25' E 139°47'  

Dump ship's entire track history